Time;durP1;ratioP1;P1;durP2;ratioP2;P2;SDS_P1;SDS_P2;PMS_P1;PMS_P2;Temp;Humidity;BMP_temperature;BMP_pressure;BME280_temperature;BME280_humidity;BME280_pressure;Samples;Min_cycle;Max_cycle;Signal;HPM_P1;HPM_P2
2021/09/23 00:00:10;;;;;;;14.93;12.15;;;;;;;12.89;74.20;99267.66;5053241;28;20031;-52
2021/09/23 00:03:31;;;;;;;18.75;13.65;;;;;;;12.89;74.27;99272.94;5052981;28;20509;-52
2021/09/23 00:05:30;;;;;;;25.58;23.02;;;;;;;13.00;73.81;99271.56;5052563;28;20044;-52
2021/09/23 00:07:57;;;;;;;12.98;10.57;;;;;;;13.21;73.81;99265.25;5053121;28;20021;-52
2021/09/23 00:10:25;;;;;;;14.57;12.40;;;;;;;13.56;73.08;99267.69;5053117;28;20024;-52
2021/09/23 00:12:53;;;;;;;20.70;15.18;;;;;;;13.86;71.96;99270.69;5053041;28;20029;-52
2021/09/23 00:15:19;;;;;;;17.85;12.60;;;;;;;14.12;71.34;99272.41;5051686;28;20025;-52
2021/09/23 00:17:48;;;;;;;18.15;11.90;;;;;;;14.56;70.15;99270.84;5051698;28;20053;-52
2021/09/23 00:20:24;;;;;;;21.40;17.80;;;;;;;14.77;68.89;99282.91;5052940;28;20029;-52
2021/09/23 00:22:51;;;;;;;18.52;12.68;;;;;;;15.06;68.35;99287.81;5052742;28;20041;-52
2021/09/23 00:25:17;;;;;;;11.82;10.40;;;;;;;15.35;67.18;99281.06;5052738;28;20025;-52
2021/09/23 00:27:44;;;;;;;16.58;11.02;;;;;;;15.24;66.45;99282.59;5052785;28;20017;-52
2021/09/23 00:30:11;;;;;;;15.95;11.18;;;;;;;15.14;66.77;99279.63;5051398;28;20029;-52
2021/09/23 00:32:37;;;;;;;14.02;10.40;;;;;;;15.27;66.55;99276.88;5052665;28;20499;-52
2021/09/23 00:35:07;;;;;;;14.48;11.00;;;;;;;15.53;65.83;99275.00;5052610;28;20450;-52
2021/09/23 00:37:34;;;;;;;12.32;9.27;;;;;;;15.70;65.08;99277.91;5052613;28;20568;-52
2021/09/23 00:40:00;;;;;;;17.17;11.00;;;;;;;15.42;64.55;99265.97;5051256;28;20025;-50
2021/09/23 00:42:25;;;;;;;11.52;10.32;;;;;;;14.78;65.36;99271.31;5051199;28;20028;-50
2021/09/23 00:44:58;;;;;;;17.10;11.48;;;;;;;14.21;67.13;99273.03;5052440;28;20525;-50
2021/09/23 00:47:24;;;;;;;19.27;15.15;;;;;;;13.90;68.52;99277.16;5052476;28;20032;-49
2021/09/23 00:49:50;;;;;;;15.82;11.85;;;;;;;13.64;69.10;99267.47;5052421;28;20079;-49
2021/09/23 00:52:19;;;;;;;12.57;10.50;;;;;;;13.55;69.67;99276.63;5051056;28;20031;-49
2021/09/23 00:54:46;;;;;;;13.10;10.98;;;;;;;13.46;69.56;99288.41;5052363;28;20063;-50
2021/09/23 00:57:17;;;;;;;16.58;10.95;;;;;;;13.44;70.00;99277.25;5050990;28;20111;-50
2021/09/23 00:59:44;;;;;;;14.60;11.77;;;;;;;13.35;70.18;99277.44;5052241;28;20029;-49
2021/09/23 01:02:09;;;;;;;13.20;11.10;;;;;;;13.17;70.69;99270.13;5052122;28;20043;-49
2021/09/23 01:04:35;;;;;;;11.85;10.20;;;;;;;13.02;71.10;99282.69;5050855;28;20487;-49
2021/09/23 01:07:01;;;;;;;14.77;12.15;;;;;;;12.90;71.88;99282.47;5052041;28;20487;-50
2021/09/23 01:09:26;;;;;;;48.58;43.75;;;;;;;12.82;71.84;99280.03;5050730;28;20402;-52
2021/09/23 01:11:52;;;;;;;35.67;31.88;;;;;;;12.77;72.25;99277.19;5050621;28;20059;-52
2021/09/23 01:14:18;;;;;;;17.77;15.90;;;;;;;12.85;72.51;99265.66;5051382;28;20063;-52
2021/09/23 01:16:44;;;;;;;15.30;11.77;;;;;;;12.87;72.01;99261.78;5050600;28;20067;-52
2021/09/23 01:19:11;;;;;;;17.40;13.18;;;;;;;12.78;72.57;99255.13;5050582;28;20088;-52
2021/09/23 01:21:39;;;;;;;24.65;12.15;;;;;;;12.59;72.89;99261.94;5051674;28;20094;-53
2021/09/23 01:24:05;;;;;;;16.08;14.38;;;;;;;12.49;72.80;99256.25;5050546;28;20487;-52
2021/09/23 01:26:31;;;;;;;19.02;13.45;;;;;;;12.59;73.37;99259.31;5051726;28;20028;-52
2021/09/23 01:28:57;;;;;;;14.40;10.85;;;;;;;12.79;72.76;99251.44;5051777;28;20040;-52
2021/09/23 01:31:23;;;;;;;17.80;11.75;;;;;;;12.79;72.55;99257.53;5051766;28;20158;-52
2021/09/23 01:33:51;;;;;;;23.83;13.02;;;;;;;12.91;72.73;99259.56;5051713;28;20104;-52
2021/09/23 01:36:16;;;;;;;18.63;13.18;;;;;;;13.24;72.31;99254.34;5051715;28;20083;-52
2021/09/23 01:38:43;;;;;;;15.65;13.45;;;;;;;13.53;71.39;99255.75;5050396;28;20498;-52
2021/09/23 01:41:10;;;;;;;17.38;15.70;;;;;;;13.65;70.10;99248.00;5050403;28;20029;-52
2021/09/23 01:43:36;;;;;;;19.73;16.13;;;;;;;13.49;70.33;99254.53;5050342;28;20551;-52
2021/09/23 01:46:02;;;;;;;18.88;14.15;;;;;;;13.31;70.32;99249.06;5050186;28;20036;-52
2021/09/23 01:48:27;;;;;;;16.83;12.23;;;;;;;13.19;71.10;99246.22;5051651;28;20043;-52
2021/09/23 01:50:53;;;;;;;18.67;15.38;;;;;;;13.33;70.94;99242.56;5051573;28;20032;-52
2021/09/23 01:53:19;;;;;;;19.55;12.35;;;;;;;13.71;70.75;99247.19;5051565;28;20479;-52
2021/09/23 01:55:44;;;;;;;21.17;11.25;;;;;;;14.21;69.42;99249.25;5050197;28;20530;-52
2021/09/23 01:58:10;;;;;;;15.35;12.23;;;;;;;14.51;68.14;99246.88;5050189;28;20135;-52
2021/09/23 02:00:36;;;;;;;31.00;22.02;;;;;;;14.45;67.43;99250.38;5050186;28;20025;-52
2021/09/23 02:03:02;;;;;;;17.25;13.18;;;;;;;14.03;67.69;99251.78;5050188;28;20013;-52
2021/09/23 02:05:28;;;;;;;15.52;12.63;;;;;;;13.59;68.46;99251.47;5051347;28;20075;-52
2021/09/23 02:07:54;;;;;;;16.35;12.40;;;;;;;13.28;69.29;99250.28;5050075;28;20025;-52
2021/09/23 02:10:20;;;;;;;14.13;12.65;;;;;;;13.03;70.14;99243.97;5050061;28;20082;-52
2021/09/23 02:12:45;;;;;;;16.50;12.27;;;;;;;12.71;70.87;99249.00;5051357;28;20021;-52
2021/09/23 02:15:11;;;;;;;17.42;13.05;;;;;;;12.46;71.66;99252.19;5051365;28;20032;-52
2021/09/23 02:17:37;;;;;;;14.57;12.43;;;;;;;12.31;72.71;99231.28;5051345;28;20040;-52
2021/09/23 02:20:03;;;;;;;13.63;11.95;;;;;;;12.25;72.67;99233.91;5051299;28;20391;-52
2021/09/23 02:22:29;;;;;;;17.85;12.88;;;;;;;12.11;73.03;99223.34;5051038;28;20048;-52
2021/09/23 02:24:55;;;;;;;15.48;12.48;;;;;;;11.99;73.60;99230.16;5050584;28;20487;-52
2021/09/23 02:27:22;;;;;;;14.63;12.65;;;;;;;11.91;73.85;99231.16;5054928;28;20499;-52
2021/09/23 02:29:48;;;;;;;21.98;14.98;;;;;;;12.07;74.21;99229.19;5055020;28;20459;-52
2021/09/23 02:32:14;;;;;;;19.42;12.45;;;;;;;12.24;73.88;99229.66;5055014;28;20021;-52
2021/09/23 02:34:39;;;;;;;14.00;12.50;;;;;;;12.23;73.50;99235.94;5054942;28;20017;-52
2021/09/23 02:37:06;;;;;;;15.32;12.48;;;;;;;12.12;73.79;99229.41;5053616;28;20076;-52
2021/09/23 02:39:33;;;;;;;13.95;12.07;;;;;;;12.01;74.37;99232.59;5054884;28;20099;-52
2021/09/23 02:41:59;;;;;;;24.70;22.00;;;;;;;11.89;74.66;99232.34;5053463;28;20029;-52
2021/09/23 02:44:24;;;;;;;16.63;14.40;;;;;;;11.80;74.64;99229.84;5054770;28;20059;-52
2021/09/23 02:46:50;;;;;;;19.58;12.82;;;;;;;11.77;74.85;99226.78;5054606;28;20061;-52
2021/09/23 02:49:16;;;;;;;19.50;15.10;;;;;;;11.79;75.61;99233.50;5054698;28;20096;-52
2021/09/23 02:51:41;;;;;;;21.13;14.32;;;;;;;11.77;75.47;99229.41;5054596;28;20471;-52
2021/09/23 02:54:07;;;;;;;18.05;13.65;;;;;;;11.77;75.24;99224.16;5053288;28;20075;-52
2021/09/23 02:56:33;;;;;;;17.08;12.45;;;;;;;11.72;75.15;99219.50;5053178;28;20120;-52
2021/09/23 02:58:59;;;;;;;17.48;12.88;;;;;;;11.71;75.21;99224.94;5054483;28;20021;-52
2021/09/23 03:01:24;;;;;;;19.33;12.80;;;;;;;11.73;75.38;99215.88;5054432;28;20059;-52
2021/09/23 03:03:50;;;;;;;19.17;12.85;;;;;;;11.71;75.40;99207.38;5054640;28;20032;-52
2021/09/23 03:06:16;;;;;;;16.38;13.18;;;;;;;11.67;75.08;99206.13;5054322;28;20029;-52
2021/09/23 03:08:42;;;;;;;17.45;12.57;;;;;;;11.63;75.50;99215.41;5054319;28;20451;-52
2021/09/23 03:11:08;;;;;;;16.42;13.60;;;;;;;11.62;75.52;99219.03;5052869;28;20131;-52
2021/09/23 03:13:34;;;;;;;18.95;14.82;;;;;;;11.63;75.66;99215.41;5054235;28;20025;-52
2021/09/23 03:15:59;;;;;;;17.40;12.85;;;;;;;11.62;75.80;99216.41;5054184;28;20029;-52
2021/09/23 03:18:25;;;;;;;15.48;13.20;;;;;;;11.59;75.98;99216.81;5054125;28;20017;-52
2021/09/23 03:20:51;;;;;;;20.80;15.10;;;;;;;11.63;76.20;99220.66;5054052;28;20029;-52
2021/09/23 03:23:17;;;;;;;24.08;17.20;;;;;;;11.98;75.36;99213.56;5052504;28;20165;-52
2021/09/23 03:25:44;;;;;;;18.40;12.50;;;;;;;12.27;74.20;99211.63;5053904;28;20024;-52
2021/09/23 03:28:10;;;;;;;15.40;12.27;;;;;;;12.41;73.42;99217.75;5053954;28;20542;-52
2021/09/23 03:30:37;;;;;;;17.27;11.27;;;;;;;12.24;72.90;99219.94;5053894;28;20044;-52
2021/09/23 03:33:04;;;;;;;19.67;12.80;;;;;;;11.95;73.27;99211.34;5053908;28;20398;-53
2021/09/23 03:35:30;;;;;;;17.85;13.25;;;;;;;11.71;74.07;99212.63;5053807;28;20498;-52
2021/09/23 03:37:59;;;;;;;17.27;12.07;;;;;;;11.57;74.78;99208.31;5052125;28;20128;-52
2021/09/23 03:40:25;;;;;;;15.07;12.60;;;;;;;11.52;75.27;99208.84;5053680;28;20438;-52
2021/09/23 03:42:51;;;;;;;18.20;12.13;;;;;;;11.60;74.65;99218.41;5053646;28;20056;-52
2021/09/23 03:45:17;;;;;;;17.38;12.45;;;;;;;11.68;74.85;99218.25;5053489;28;20025;-52
2021/09/23 03:47:44;;;;;;;35.70;31.60;;;;;;;11.65;74.50;99213.41;5053791;28;20035;-52
2021/09/23 03:50:11;;;;;;;17.85;13.88;;;;;;;11.59;74.47;99212.34;5053513;28;20495;-52
2021/09/23 03:52:38;;;;;;;14.98;13.35;;;;;;;11.50;74.80;99216.13;5052119;28;20116;-52
2021/09/23 03:55:05;;;;;;;21.38;12.90;;;;;;;11.41;75.03;99222.56;5053452;28;20017;-52
2021/09/23 03:57:31;;;;;;;20.02;13.68;;;;;;;11.33;75.42;99220.88;5053415;28;20107;-52
2021/09/23 03:59:56;;;;;;;27.67;23.33;;;;;;;11.36;75.57;99217.06;5052340;28;20113;-52
2021/09/23 04:02:22;;;;;;;19.63;14.48;;;;;;;11.50;75.75;99218.75;5053303;28;20029;-52
2021/09/23 04:04:48;;;;;;;35.97;22.77;;;;;;;11.75;75.47;99219.13;5051887;28;20171;-52
2021/09/23 04:07:13;;;;;;;14.95;12.32;;;;;;;12.08;74.79;99204.50;5053142;28;20180;-52
2021/09/23 04:09:39;;;;;;;13.45;9.95;;;;;;;12.28;73.42;99199.31;5051793;28;20017;-52
2021/09/23 04:12:05;;;;;;;22.83;17.40;;;;;;;12.55;73.09;99195.69;5053123;28;20059;-52
2021/09/23 04:14:32;;;;;;;23.63;21.35;;;;;;;12.77;71.90;99203.44;5051694;28;20437;-52
2021/09/23 04:16:57;;;;;;;12.40;7.07;;;;;;;12.82;71.54;99202.81;5051658;28;20466;-52
2021/09/23 04:19:23;;;;;;;15.65;7.20;;;;;;;12.72;71.22;99211.16;5051672;28;20048;-52
2021/09/23 04:21:49;;;;;;;14.15;7.53;;;;;;;12.57;71.23;99206.03;5051351;28;20521;-52
2021/09/23 04:24:15;;;;;;;15.25;9.50;;;;;;;12.76;71.84;99210.53;5052901;28;20398;-52
2021/09/23 04:26:42;;;;;;;16.02;8.73;;;;;;;13.23;70.39;99207.09;5051411;28;20024;-52
2021/09/23 04:29:08;;;;;;;13.35;9.48;;;;;;;13.72;68.96;99211.06;5051457;28;20039;-52
2021/09/23 04:31:33;;;;;;;11.10;6.93;;;;;;;14.01;67.81;99201.03;5052712;28;20487;-52
2021/09/23 04:33:59;;;;;;;17.17;7.28;;;;;;;13.96;66.87;99201.63;5051385;28;20441;-52
2021/09/23 04:36:25;;;;;;;11.75;7.13;;;;;;;13.95;67.02;99194.75;5052612;28;20035;-52
2021/09/23 04:38:50;;;;;;;12.93;7.22;;;;;;;14.10;66.32;99197.13;5052561;28;20025;-52
2021/09/23 04:41:16;;;;;;;17.13;11.45;;;;;;;14.29;66.10;99196.22;5052571;28;20079;-52
2021/09/23 04:43:42;;;;;;;17.42;8.85;;;;;;;14.50;65.16;99202.97;5051123;28;20021;-52
2021/09/23 04:46:08;;;;;;;93.47;83.93;;;;;;;14.60;64.63;99201.75;5052382;28;20394;-52
2021/09/23 04:48:35;;;;;;;20.92;13.93;;;;;;;14.67;64.14;99203.31;5051478;28;20025;-52
2021/09/23 04:51:01;;;;;;;19.70;9.80;;;;;;;14.75;63.56;99196.97;5052385;28;20051;-52
2021/09/23 04:53:28;;;;;;;23.58;14.30;;;;;;;14.81;63.17;99198.75;5052288;28;20049;-52
2021/09/23 04:55:54;;;;;;;45.78;30.70;;;;;;;14.75;62.82;99197.78;5052263;28;20031;-52
2021/09/23 04:58:19;;;;;;;22.92;16.73;;;;;;;14.31;63.16;99193.38;5052287;28;20017;-52
2021/09/23 05:00:45;;;;;;;23.42;14.95;;;;;;;13.77;64.23;99198.06;5052061;28;20484;-51
2021/09/23 05:03:13;;;;;;;18.80;12.80;;;;;;;13.73;65.91;99207.41;5050880;28;20021;-52
2021/09/23 05:05:40;;;;;;;22.52;15.63;;;;;;;13.96;65.52;99205.09;5052037;28;20376;-52
2021/09/23 05:08:06;;;;;;;19.50;14.30;;;;;;;14.10;64.86;99202.41;5052128;28;20108;-52
2021/09/23 05:10:35;;;;;;;26.48;14.82;;;;;;;14.02;64.94;99207.91;5050691;28;20094;-52
2021/09/23 05:13:02;;;;;;;17.80;13.02;;;;;;;14.12;64.92;99213.56;5050870;28;20033;-52
2021/09/23 05:15:28;;;;;;;18.10;13.80;;;;;;;14.34;64.29;99214.06;5052217;28;20025;-52
2021/09/23 05:17:54;;;;;;;34.40;26.48;;;;;;;14.51;63.71;99209.91;5051963;28;20380;-52
2021/09/23 05:20:20;;;;;;;37.10;30.75;;;;;;;14.65;63.20;99217.75;5051849;28;20364;-52
2021/09/23 05:22:46;;;;;;;24.80;15.45;;;;;;;14.63;62.85;99204.78;5051649;28;20044;-52
2021/09/23 05:25:12;;;;;;;28.60;14.90;;;;;;;14.43;62.92;99212.78;5051831;28;20458;-52
2021/09/23 05:27:39;;;;;;;19.95;16.92;;;;;;;13.99;63.47;99217.06;5050617;28;20074;-52
2021/09/23 05:30:12;;;;;;;22.48;16.30;;;;;;;13.65;64.29;99211.09;5050493;28;20108;-52
2021/09/23 05:32:38;;;;;;;21.50;14.32;;;;;;;13.27;65.01;99209.09;5051775;28;20029;-51
2021/09/23 05:35:04;;;;;;;27.35;12.38;;;;;;;12.95;65.73;99211.53;5050437;28;20556;-52
2021/09/23 05:37:30;;;;;;;20.42;14.20;;;;;;;12.58;67.25;99212.94;5050403;28;20036;-52
2021/09/23 05:39:56;;;;;;;21.70;13.43;;;;;;;12.44;67.73;99221.84;5051695;28;20495;-52
2021/09/23 05:42:22;;;;;;;26.00;17.30;;;;;;;12.63;67.82;99228.13;5051705;28;20028;-52
2021/09/23 05:44:51;;;;;;;24.98;15.18;;;;;;;12.93;67.18;99228.56;5050437;28;20025;-53
2021/09/23 05:47:18;;;;;;;31.38;19.83;;;;;;;13.02;66.64;99229.16;5051583;28;20059;-52
2021/09/23 05:49:44;;;;;;;19.27;15.30;;;;;;;13.02;66.70;99227.38;5051663;28;20392;-52
2021/09/23 05:52:10;;;;;;;198.27;176.48;;;;;;;12.74;67.18;99235.47;5051596;28;20033;-52
2021/09/23 05:54:36;;;;;;;26.98;17.08;;;;;;;12.62;67.93;99237.06;5050230;28;20025;-51
2021/09/23 05:57:02;;;;;;;19.15;14.07;;;;;;;12.57;68.32;99235.81;5050200;28;20048;-52
2021/09/23 05:59:28;;;;;;;32.33;18.75;;;;;;;12.65;67.98;99228.75;5050168;28;20112;-52
2021/09/23 06:01:57;;;;;;;17.15;14.10;;;;;;;12.58;68.21;99223.47;5055535;28;20032;-52
2021/09/23 06:04:23;;;;;;;21.40;15.55;;;;;;;12.51;68.76;99225.28;5055560;28;20031;-52
2021/09/23 06:06:49;;;;;;;33.72;24.98;;;;;;;12.62;68.52;99222.06;5054102;28;20102;-52
2021/09/23 06:09:15;;;;;;;30.60;20.23;;;;;;;12.68;69.07;99218.63;5055407;28;20021;-52
2021/09/23 06:11:42;;;;;;;23.50;18.40;;;;;;;12.97;68.72;99227.16;5055373;28;20264;-52
2021/09/23 06:14:08;;;;;;;45.60;37.42;;;;;;;13.54;67.84;99220.47;5055384;28;20096;-52
2021/09/23 06:16:34;;;;;;;27.45;21.35;;;;;;;14.36;65.31;99219.94;5055249;28;20029;-52
2021/09/23 06:19:00;;;;;;;23.92;16.70;;;;;;;15.09;63.25;99218.63;5055247;28;20021;-52
2021/09/23 06:21:26;;;;;;;22.35;15.10;;;;;;;15.91;61.57;99218.47;5055016;28;20069;-50
2021/09/23 06:23:52;;;;;;;19.98;15.35;;;;;;;17.07;58.54;99227.06;5053924;28;20483;-50
2021/09/23 06:26:19;;;;;;;31.83;13.77;;;;;;;18.03;55.68;99216.16;5054999;28;20025;-50
2021/09/23 06:28:46;;;;;;;65.13;15.55;;;;;;;18.98;53.07;99221.03;5055071;28;20036;-50
2021/09/23 06:31:11;;;;;;;46.08;14.23;;;;;;;19.70;53.49;99228.97;5054988;28;20025;-50
2021/09/23 06:33:37;;;;;;;38.28;12.75;;;;;;;19.87;53.44;99228.16;5053614;28;20032;-50
2021/09/23 06:36:04;;;;;;;26.58;15.45;;;;;;;19.72;53.55;99229.56;5053649;28;20056;-50
2021/09/23 06:38:29;;;;;;;32.70;12.40;;;;;;;19.62;54.09;99223.25;5053524;28;20457;-49
2021/09/23 06:40:56;;;;;;;54.25;37.22;;;;;;;19.80;53.95;99216.84;5053487;28;20025;-50
2021/09/23 06:43:25;;;;;;;35.08;13.75;;;;;;;20.10;51.89;99217.25;5054821;28;20029;-50
2021/09/23 06:45:51;;;;;;;293.58;261.55;;;;;;;20.57;50.50;99212.38;5054695;28;20067;-50
2021/09/23 06:48:16;;;;;;;397.10;283.92;;;;;;;21.11;48.92;99210.44;5054633;28;20116;-50
2021/09/23 06:50:42;;;;;;;251.00;202.63;;;;;;;21.59;46.75;99217.69;5054634;28;20104;-50
2021/09/23 06:53:08;;;;;;;589.38;390.17;;;;;;;22.24;45.73;99219.03;5054611;28;20104;-50
2021/09/23 06:55:34;;;;;;;314.48;248.93;;;;;;;22.75;43.74;99218.28;5054555;28;20036;-50
2021/09/23 06:57:59;;;;;;;583.90;478.27;;;;;;;23.23;42.75;99226.84;5053184;28;20518;-50
2021/09/23 07:00:27;;;;;;;92.40;45.15;;;;;;;23.70;41.45;99224.84;5054481;28;20024;-50
2021/09/23 07:02:53;;;;;;;40.15;28.77;;;;;;;24.03;40.34;99223.41;5054424;28;20025;-50
2021/09/23 07:05:19;;;;;;;144.27;29.40;;;;;;;24.40;39.84;99227.50;5052915;28;20021;-50
2021/09/23 07:07:45;;;;;;;56.88;17.10;;;;;;;24.53;39.30;99234.16;5054339;28;20039;-50
2021/09/23 07:10:10;;;;;;;51.22;15.57;;;;;;;24.19;41.72;99223.34;5054564;28;20024;-50
2021/09/23 07:12:37;;;;;;;70.15;16.95;;;;;;;23.96;41.11;99228.28;5051859;28;20063;-50
2021/09/23 07:15:04;;;;;;;60.35;17.20;;;;;;;23.40;41.79;99234.59;5054217;28;20028;-50
2021/09/23 07:17:31;;;;;;;60.15;16.50;;;;;;;22.90;42.61;99228.22;5054195;28;20033;-50
2021/09/23 07:19:58;;;;;;;88.15;18.48;;;;;;;22.79;42.24;99227.38;5054085;28;20581;-50
2021/09/23 07:22:24;;;;;;;39.55;10.50;;;;;;;22.94;42.21;99222.03;5053801;28;20051;-50
2021/09/23 07:24:50;;;;;;;79.75;19.77;;;;;;;23.06;42.25;99226.34;5054047;28;20025;-50
2021/09/23 07:27:16;;;;;;;50.67;11.57;;;;;;;23.98;40.90;99228.78;5052581;28;20022;-49
2021/09/23 07:29:42;;;;;;;46.92;12.32;;;;;;;24.69;39.38;99238.34;5053965;28;20491;-50
2021/09/23 07:32:09;;;;;;;27.95;8.82;;;;;;;25.09;38.74;99233.72;5052572;28;20032;-48
2021/09/23 07:34:36;;;;;;;41.72;11.65;;;;;;;25.43;37.73;99235.53;5053856;28;20078;-48
2021/09/23 07:37:05;;;;;;;49.45;11.18;;;;;;;25.65;37.69;99229.66;5053783;28;20036;-48
2021/09/23 07:39:32;;;;;;;29.15;14.75;;;;;;;26.11;36.71;99231.03;5053781;28;20017;-48
2021/09/23 07:41:58;;;;;;;25.33;12.65;;;;;;;26.31;36.15;99232.63;5053714;28;20033;-48
2021/09/23 07:44:24;;;;;;;19.75;7.25;;;;;;;26.00;36.64;99243.03;5052341;28;20055;-48
2021/09/23 07:46:52;;;;;;;15.25;7.50;;;;;;;26.11;36.56;99241.78;5053540;28;20112;-48
2021/09/23 07:49:21;;;;;;;20.50;7.57;;;;;;;26.39;36.09;99245.44;5053575;28;20049;-48
2021/09/23 07:51:47;;;;;;;11.88;6.28;;;;;;;26.65;35.62;99234.31;5052199;28;20457;-48
2021/09/23 07:54:14;;;;;;;21.45;6.80;;;;;;;26.79;35.78;99231.69;5053458;28;20025;-48
2021/09/23 07:56:40;;;;;;;25.08;7.88;;;;;;;27.01;35.28;99231.84;5053431;28;20083;-48
2021/09/23 07:59:06;;;;;;;15.57;6.50;;;;;;;27.43;34.21;99238.13;5053421;28;20539;-48
2021/09/23 08:01:32;;;;;;;14.68;6.45;;;;;;;27.69;34.04;99238.44;5052029;28;20025;-48
2021/09/23 08:03:58;;;;;;;25.70;8.75;;;;;;;28.10;33.71;99242.22;5052010;28;20021;-48
2021/09/23 08:06:24;;;;;;;15.00;6.90;;;;;;;28.36;33.54;99239.75;5053120;28;20047;-48
2021/09/23 08:08:50;;;;;;;17.17;7.25;;;;;;;28.43;33.22;99239.31;5053217;28;20048;-48
2021/09/23 08:11:15;;;;;;;20.20;7.13;;;;;;;28.49;33.33;99244.31;5053174;28;20040;-48
2021/09/23 08:13:41;;;;;;;24.73;7.50;;;;;;;28.61;32.88;99246.47;5053160;28;20029;-51
2021/09/23 08:16:07;;;;;;;21.38;7.35;;;;;;;28.77;32.67;99246.91;5051735;28;20457;-51
2021/09/23 08:18:33;;;;;;;40.42;8.63;;;;;;;29.04;32.41;99248.69;5051725;28;20116;-51
2021/09/23 08:20:59;;;;;;;28.23;8.70;;;;;;;29.54;31.67;99249.56;5051681;28;20029;-51
2021/09/23 08:23:24;;;;;;;35.83;9.27;;;;;;;29.97;31.42;99252.44;5052493;28;20079;-51
2021/09/23 08:25:52;;;;;;;27.52;8.00;;;;;;;30.22;31.29;99245.50;5051455;28;20021;-51
2021/09/23 08:28:23;;;;;;;14.68;6.85;;;;;;;30.54;30.11;99254.25;5052789;28;20414;-51
2021/09/23 08:30:50;;;;;;;15.52;6.63;;;;;;;30.73;29.98;99253.94;5052734;28;20136;-51
2021/09/23 08:33:16;;;;;;;14.75;7.00;;;;;;;31.02;29.98;99238.94;5052687;28;20060;-49
2021/09/23 08:35:42;;;;;;;40.13;9.68;;;;;;;31.38;29.73;99243.13;5051337;28;20049;-49
2021/09/23 08:38:08;;;;;;;30.23;7.88;;;;;;;31.55;29.58;99247.69;5052690;28;20025;-49
2021/09/23 08:40:34;;;;;;;24.70;6.93;;;;;;;31.56;29.28;99246.59;5052579;28;20495;-49
2021/09/23 08:43:00;;;;;;;17.35;6.10;;;;;;;31.73;29.69;99240.28;5052491;28;20104;-48
2021/09/23 08:45:26;;;;;;;16.17;7.72;;;;;;;31.93;28.63;99255.78;5051062;28;20113;-49
2021/09/23 08:47:53;;;;;;;30.20;7.70;;;;;;;32.17;28.74;99255.19;5051128;28;20035;-49
2021/09/23 08:50:19;;;;;;;11.77;7.10;;;;;;;32.59;27.96;99254.41;5052345;28;20032;-49
2021/09/23 08:52:45;;;;;;;21.33;7.72;;;;;;;32.85;27.48;99259.59;5052344;28;20430;-49
2021/09/23 08:55:26;;;;;;;10.88;7.63;;;;;;;32.93;26.94;99260.66;5051036;28;20075;-49
2021/09/23 08:57:55;;;;;;;26.27;8.82;;;;;;;32.97;26.78;99265.06;5052263;28;20029;-48
2021/09/23 09:00:22;;;;;;;17.63;8.43;;;;;;;33.25;26.15;99255.53;5050910;28;20048;-49
2021/09/23 09:03:06;;;;;;;30.83;9.85;;;;;;;33.41;26.62;99265.41;5050927;28;20102;-49
2021/09/23 09:05:32;;;;;;;;;;;;;;;34.15;27.07;99260.00;5051192;28;20044;-49
2021/09/23 09:08:14;;;;;;;20.58;7.85;;;;;;;34.05;25.64;99252.25;5067582;28;19913;-49
2021/09/23 09:10:40;;;;;;;10.90;7.22;;;;;;;33.88;25.82;99258.75;5052301;28;20501;-49
2021/09/23 09:13:08;;;;;;;28.13;7.43;;;;;;;33.76;26.05;99256.81;5052041;28;20425;-49
2021/09/23 09:15:40;;;;;;;13.63;6.68;;;;;;;34.01;25.59;99245.91;5051998;28;20033;-49
2021/09/23 09:18:17;;;;;;;18.27;6.95;;;;;;;34.07;25.32;99252.72;5052211;28;20421;-49
2021/09/23 09:20:57;;;;;;;18.02;7.50;;;;;;;33.89;25.93;99249.47;5050723;28;20052;-49
2021/09/23 09:23:26;;;;;;;18.63;8.13;;;;;;;34.09;25.53;99244.19;5050466;28;20098;-49
2021/09/23 09:25:52;;;;;;;17.50;9.68;;;;;;;34.14;25.75;99238.53;5050444;28;20044;-50
2021/09/23 09:28:21;;;;;;;10.70;7.03;;;;;;;33.93;25.88;99247.63;5050543;28;20040;-51
2021/09/23 09:30:58;;;;;;;7.70;6.13;;;;;;;34.12;26.19;99240.78;5051785;28;20021;-51
2021/09/23 09:33:38;;;;;;;9.23;6.72;;;;;;;34.46;26.09;99228.53;5051731;28;20045;-51
2021/09/23 09:36:21;;;;;;;8.30;5.63;;;;;;;34.44;25.73;99235.50;5051169;28;20029;-51
2021/09/23 09:38:50;;;;;;;8.03;5.67;;;;;;;34.42;26.03;99228.44;5051762;28;20383;-51
2021/09/23 09:41:16;;;;;;;6.78;4.95;;;;;;;34.65;25.55;99224.38;5051602;28;20037;-51
2021/09/23 09:43:43;;;;;;;13.20;6.07;;;;;;;34.93;25.49;99218.91;5050333;28;20033;-49
2021/09/23 09:46:32;;;;;;;9.77;5.78;;;;;;;35.33;24.89;99223.44;5051465;28;20095;-49
2021/09/23 09:48:58;;;;;;;6.47;5.78;;;;;;;35.39;24.76;99224.75;5051603;28;20029;-49
2021/09/23 09:51:38;;;;;;;12.70;7.38;;;;;;;35.35;25.33;99221.16;5051570;28;20502;-49
2021/09/23 09:54:06;;;;;;;8.68;6.28;;;;;;;35.44;24.11;99227.22;5051639;28;20033;-49
2021/09/23 09:56:32;;;;;;;13.32;6.20;;;;;;;35.52;24.55;99228.19;5051535;28;20028;-52
2021/09/23 09:59:10;;;;;;;15.95;6.88;;;;;;;35.52;24.93;99223.50;5051584;28;20513;-52
2021/09/23 10:01:37;;;;;;;12.15;6.13;;;;;;;35.87;24.70;99214.56;5051524;28;20406;-51
2021/09/23 10:04:03;;;;;;;14.55;6.43;;;;;;;36.05;24.57;99208.69;5050123;28;20058;-51
2021/09/23 10:06:31;;;;;;;11.88;5.97;;;;;;;36.45;23.91;99211.09;5051334;28;20402;-52
2021/09/23 10:08:57;;;;;;;10.98;5.65;;;;;;;36.78;23.58;99210.56;5050118;28;20372;-51
2021/09/23 10:11:24;;;;;;;11.95;6.88;;;;;;;36.84;23.45;99210.25;5051362;28;20028;-52
2021/09/23 10:13:51;;;;;;;9.18;6.85;;;;;;;36.95;23.16;99208.50;5050067;28;20040;-52
2021/09/23 10:16:18;;;;;;;9.25;6.25;;;;;;;36.94;22.70;99210.44;5033476;28;20108;-52
2021/09/23 10:18:45;;;;;;;6.90;6.05;;;;;;;36.26;23.19;99202.88;5050079;28;20112;-51
2021/09/23 10:21:11;;;;;;;11.95;6.75;;;;;;;36.39;23.64;99209.81;5049757;28;20503;-52
2021/09/23 10:23:41;;;;;;;11.93;6.63;;;;;;;36.26;23.73;99200.97;5050018;28;20041;-52
2021/09/23 10:26:14;;;;;;;6.90;5.55;;;;;;;36.23;23.33;99200.88;5051212;28;20024;-52
2021/09/23 10:28:45;;;;;;;12.02;7.55;;;;;;;35.75;24.30;99203.75;5050055;28;20471;-52
2021/09/23 10:31:23;;;;;;;5.90;4.75;;;;;;;35.71;24.47;99200.16;5051286;28;20438;-52
2021/09/23 10:33:53;;;;;;;8.00;4.93;;;;;;;36.04;23.68;99199.72;5049967;28;20043;-51
2021/09/23 10:36:20;;;;;;;10.38;6.07;;;;;;;36.68;23.43;99199.41;5051182;28;20030;-51
2021/09/23 10:38:46;;;;;;;6.80;5.07;;;;;;;36.76;23.04;99188.25;5051216;28;20513;-51
2021/09/23 10:41:14;;;;;;;10.18;7.00;;;;;;;36.63;23.39;99186.84;5049815;28;20090;-51
2021/09/23 10:43:42;;;;;;;5.97;4.13;;;;;;;36.54;23.20;99194.44;5051135;28;20455;-51
2021/09/23 10:46:14;;;;;;;8.80;4.65;;;;;;;36.42;23.54;99197.34;5051884;28;20040;-51
2021/09/23 10:48:39;;;;;;;5.28;4.35;;;;;;;36.27;23.88;99191.59;5054756;28;20037;-51
2021/09/23 10:51:07;;;;;;;5.03;4.50;;;;;;;36.23;23.59;99185.28;5054710;28;20051;-51
2021/09/23 10:53:36;;;;;;;5.38;4.85;;;;;;;35.95;23.99;99188.97;5054679;28;20017;-51
2021/09/23 10:56:07;;;;;;;11.20;6.40;;;;;;;36.21;23.74;99189.53;5053263;28;20029;-52
2021/09/23 10:58:34;;;;;;;5.88;4.88;;;;;;;36.05;24.01;99189.56;5053271;28;20044;-51
2021/09/23 11:01:01;;;;;;;9.18;5.55;;;;;;;36.05;24.26;99182.16;5054540;28;20024;-52
2021/09/23 11:03:40;;;;;;;6.75;5.50;;;;;;;35.87;24.22;99178.25;5053131;28;20029;-51
2021/09/23 11:06:10;;;;;;;5.57;4.70;;;;;;;35.51;24.85;99186.41;5054326;28;20025;-51
2021/09/23 11:08:46;;;;;;;7.63;5.38;;;;;;;35.58;24.75;99180.34;5053039;28;20040;-51
2021/09/23 11:11:14;;;;;;;5.40;4.10;;;;;;;35.86;24.71;99184.84;5054360;28;20025;-50
2021/09/23 11:13:41;;;;;;;7.45;5.00;;;;;;;36.09;24.64;99182.22;5054256;28;20050;-51
2021/09/23 11:16:13;;;;;;;5.13;4.63;;;;;;;36.04;24.14;99182.50;5054236;28;20499;-51
2021/09/23 11:18:41;;;;;;;6.97;4.65;;;;;;;35.69;24.90;99175.94;5054207;28;20051;-52
2021/09/23 11:21:08;;;;;;;11.23;5.47;;;;;;;35.79;24.57;99177.31;5053820;28;20100;-51